X  Cerrar Datos meteorológicos de aviación METAR        LGTS Thessaloniki Macedonia International
Temperatura
35°C Temperatura
18°C Punto de rocío
37% Humedad



Viento
14 MPH
22 KM/H
6 M/S
12 NUDO



170°
S
Condiciones actuales

Mostly Sunny Mayormente soleado
Presión 1006 (hPa) - 29.7 (inHg)
Visibilidad 6 (milla) - 10 (km)
Aeropuerto
Código de aeropuerto LGTS

localidad: Thessaloniki Macedonia International
Distancia: 85 (mi)

Metar:
METAR LGTS 201620Z 17012KT 9999 FEW025 35/18 Q1006 NOSIG

Hora: 20-07-2024 19:20 EEST